createdAt,value
2023-08-08T00:00:23.131Z,18.01
2023-08-08T00:01:23.065Z,18.02
2023-08-08T00:02:23.071Z,18.02
2023-08-08T00:03:23.125Z,18.01
2023-08-08T00:04:23.014Z,18.01
2023-08-08T00:05:23.057Z,18.01
2023-08-08T00:06:23.016Z,18.01
2023-08-08T00:07:23.132Z,18
2023-08-08T00:08:23.133Z,18.03
2023-08-08T00:09:23.147Z,18.01
2023-08-08T00:10:23.161Z,18
2023-08-08T00:11:23.131Z,18
2023-08-08T00:12:23.411Z,17.98
2023-08-08T00:13:23.424Z,17.96
2023-08-08T00:14:23.328Z,17.98
2023-08-08T00:15:23.215Z,17.98
2023-08-08T00:16:23.454Z,17.98
2023-08-08T00:17:23.208Z,18.01
2023-08-08T00:18:23.271Z,18.03
2023-08-08T00:19:23.215Z,18.05
2023-08-08T00:20:23.360Z,18.05
2023-08-08T00:21:23.393Z,18.03
2023-08-08T00:22:23.248Z,18.04
2023-08-08T00:23:23.354Z,18.04
2023-08-08T00:24:23.495Z,18.03
2023-08-08T00:25:23.355Z,18.04
2023-08-08T00:26:23.393Z,18.06
2023-08-08T00:27:23.390Z,18.05
2023-08-08T00:28:23.408Z,18
2023-08-08T00:29:23.430Z,17.98
2023-08-08T00:30:23.371Z,17.95
2023-08-08T00:31:23.471Z,17.93
2023-08-08T00:32:23.456Z,17.9
2023-08-08T00:33:23.452Z,17.89
2023-08-08T00:34:23.523Z,17.89
2023-08-08T00:35:23.534Z,17.86
2023-08-08T00:36:23.524Z,17.86
2023-08-08T00:37:23.553Z,17.81
2023-08-08T00:38:23.679Z,17.79
2023-08-08T00:39:23.527Z,17.8
2023-08-08T00:40:23.701Z,17.75
2023-08-08T00:41:23.555Z,17.72
2023-08-08T00:42:23.653Z,17.73
2023-08-08T00:43:23.585Z,17.72
2023-08-08T00:44:23.845Z,17.7
2023-08-08T00:45:23.624Z,17.71
2023-08-08T00:46:23.743Z,17.66
2023-08-08T00:47:23.674Z,17.64
2023-08-08T00:48:23.837Z,17.64
2023-08-08T00:49:24.197Z,17.63
2023-08-08T00:50:23.883Z,17.62
2023-08-08T00:51:25.008Z,17.65
2023-08-08T00:52:23.883Z,17.64
2023-08-08T00:53:23.905Z,17.63
2023-08-08T00:54:23.905Z,17.59
2023-08-08T00:55:24.002Z,17.59
2023-08-08T00:56:24.018Z,17.52
2023-08-08T00:57:24.108Z,17.55
2023-08-08T00:58:23.889Z,17.49
2023-08-08T00:59:24.441Z,17.47
2023-08-08T01:00:23.937Z,17.21
2023-08-08T01:01:24.038Z,16.99
2023-08-08T01:02:24.057Z,16.92
2023-08-08T01:03:24.018Z,16.78
2023-08-08T01:04:26.642Z,16.7
2023-08-08T01:05:25.581Z,16.6
2023-08-08T01:06:29.808Z,16.54
2023-08-08T01:07:31.359Z,16.5
2023-08-08T01:08:31.097Z,16.3
2023-08-08T01:09:37.115Z,16.18
2023-08-08T01:10:38.103Z,16.13
2023-08-08T01:11:32.598Z,16.13
2023-08-08T01:12:36.920Z,16.02
2023-08-08T01:13:33.743Z,15.94
2023-08-08T01:14:35.473Z,15.89
2023-08-08T01:15:34.683Z,15.84
2023-08-08T01:16:33.841Z,15.75
2023-08-08T01:17:33.994Z,15.66
2023-08-08T01:18:34.286Z,15.62
2023-08-08T01:19:33.816Z,15.62
2023-08-08T01:20:33.757Z,15.62
2023-08-08T01:21:36.394Z,15.57
2023-08-08T01:22:38.638Z,15.58
2023-08-08T01:23:40.757Z,15.56
2023-08-08T01:24:37.612Z,15.52
2023-08-08T01:25:38.444Z,15.54
2023-08-08T01:26:37.579Z,15.47
2023-08-08T01:27:37.683Z,15.47
2023-08-08T01:28:37.436Z,15.5
2023-08-08T01:29:37.467Z,15.45
2023-08-08T01:30:37.473Z,15.46
2023-08-08T01:31:37.532Z,15.4
2023-08-08T01:32:37.632Z,15.46
2023-08-08T01:33:37.804Z,15.4
2023-08-08T01:34:37.792Z,15.41
2023-08-08T01:35:42.120Z,15.37
2023-08-08T01:38:44.187Z,15.34
2023-08-08T01:39:42.190Z,15.33
2023-08-08T01:40:43.672Z,15.3
2023-08-08T01:41:42.659Z,15.3
2023-08-08T01:42:43.384Z,15.35
2023-08-08T01:43:42.379Z,15.34
2023-08-08T01:44:42.194Z,15.32
2023-08-08T01:45:42.287Z,15.31
2023-08-08T01:46:42.006Z,15.23
2023-08-08T01:47:41.856Z,15.14
2023-08-08T01:48:45.188Z,15.17
2023-08-08T01:49:41.818Z,15.25
2023-08-08T01:50:42.007Z,15.18
2023-08-08T01:51:41.984Z,15.16
2023-08-08T01:52:41.877Z,15.16
2023-08-08T01:53:42.025Z,15.17
2023-08-08T01:54:41.942Z,15.15
2023-08-08T01:55:41.938Z,15.13
2023-08-08T01:56:41.950Z,15.16
2023-08-08T01:57:41.989Z,15.2
2023-08-08T01:58:41.978Z,15.19
2023-08-08T01:59:42.013Z,15.16
2023-08-08T02:00:42.040Z,15.13
2023-08-08T02:01:42.170Z,15.17
2023-08-08T02:02:42.332Z,15.08
2023-08-08T02:03:42.204Z,15.12
2023-08-08T02:04:42.163Z,15.09
2023-08-08T02:05:42.099Z,15.01
2023-08-08T02:06:42.140Z,14.98
2023-08-08T02:07:42.167Z,14.96
2023-08-08T02:08:42.166Z,15.01
2023-08-08T02:09:42.190Z,15
2023-08-08T02:10:42.196Z,15
2023-08-08T02:11:43.112Z,14.98
2023-08-08T02:12:42.869Z,14.98
2023-08-08T02:13:42.735Z,14.97
2023-08-08T02:14:42.774Z,14.95
2023-08-08T02:15:42.768Z,14.94
2023-08-08T02:16:42.779Z,14.98
2023-08-08T02:17:42.863Z,15
2023-08-08T02:18:42.825Z,14.97
2023-08-08T02:19:42.856Z,14.97
2023-08-08T02:20:42.842Z,14.98
2023-08-08T02:21:42.868Z,14.93
2023-08-08T02:22:42.872Z,14.98
2023-08-08T02:23:42.885Z,14.95
2023-08-08T02:24:42.929Z,14.94
2023-08-08T02:25:42.920Z,14.9
2023-08-08T02:26:42.939Z,14.9
2023-08-08T02:27:42.981Z,14.88
2023-08-08T02:28:43.006Z,14.9
2023-08-08T02:29:43.009Z,14.88
2023-08-08T02:30:43.020Z,14.87
2023-08-08T02:31:43.002Z,14.87
2023-08-08T02:32:43.041Z,14.9
2023-08-08T02:33:43.049Z,14.86
2023-08-08T02:34:43.075Z,14.86
2023-08-08T02:35:43.059Z,14.89
2023-08-08T02:36:43.635Z,14.86
2023-08-08T02:37:43.621Z,14.87
2023-08-08T02:38:43.664Z,14.86
2023-08-08T02:39:44.323Z,14.86
2023-08-08T02:40:43.700Z,14.88
2023-08-08T02:41:43.721Z,14.92
2023-08-08T02:42:43.741Z,14.86
2023-08-08T02:43:43.714Z,14.84
2023-08-08T02:44:43.769Z,14.81
2023-08-08T02:45:43.782Z,14.79
2023-08-08T02:46:43.803Z,14.83
2023-08-08T02:47:43.811Z,14.79
2023-08-08T02:48:43.836Z,14.82
2023-08-08T02:49:43.800Z,14.82
2023-08-08T02:50:43.835Z,14.88
2023-08-08T02:51:43.863Z,14.8
2023-08-08T02:52:44.033Z,14.79
2023-08-08T02:53:43.881Z,14.82
2023-08-08T02:54:43.902Z,14.78
2023-08-08T02:55:43.929Z,14.64
2023-08-08T02:56:43.923Z,14.61
2023-08-08T02:57:44.003Z,14.59
2023-08-08T02:58:43.956Z,14.54
2023-08-08T02:59:43.988Z,14.54
2023-08-08T03:00:44.032Z,14.6
2023-08-08T03:01:44.186Z,14.48
2023-08-08T03:02:44.158Z,14.52
2023-08-08T03:03:44.087Z,14.51
2023-08-08T03:04:44.056Z,14.53
2023-08-08T03:05:44.773Z,14.45
2023-08-08T03:06:44.123Z,14.48
2023-08-08T03:07:44.094Z,14.48
2023-08-08T03:08:44.150Z,14.45
2023-08-08T03:09:44.576Z,14.42
2023-08-08T03:10:44.833Z,14.41
2023-08-08T03:11:44.636Z,14.38
2023-08-08T03:12:44.636Z,14.41
2023-08-08T03:13:44.621Z,14.37
2023-08-08T03:14:44.669Z,14.37
2023-08-08T03:15:44.763Z,14.49
2023-08-08T03:16:44.700Z,14.57
2023-08-08T03:17:44.888Z,14.48
2023-08-08T03:18:44.709Z,14.5
2023-08-08T03:19:44.787Z,14.49
2023-08-08T03:20:44.873Z,14.47
2023-08-08T03:21:44.851Z,14.48
2023-08-08T03:22:44.797Z,14.49
2023-08-08T03:23:45.194Z,14.42
2023-08-08T03:24:44.843Z,14.44
2023-08-08T03:25:44.992Z,14.45
2023-08-08T03:26:44.866Z,14.46
2023-08-08T03:27:44.886Z,14.42
2023-08-08T03:28:44.892Z,14.41
2023-08-08T03:29:44.890Z,14.43
2023-08-08T03:30:44.901Z,14.44
2023-08-08T03:31:44.964Z,14.45
2023-08-08T03:32:44.956Z,14.43
2023-08-08T03:33:45.130Z,14.52
2023-08-08T03:34:44.977Z,14.51
2023-08-08T03:35:47.143Z,14.46
2023-08-08T03:36:45.003Z,14.48
2023-08-08T03:37:45.047Z,14.4
2023-08-08T03:38:45.065Z,14.38
2023-08-08T03:39:45.099Z,14.42
2023-08-08T03:40:45.041Z,14.5
2023-08-08T03:41:45.122Z,14.46
2023-08-08T03:42:45.228Z,14.48
2023-08-08T03:43:45.601Z,14.49
2023-08-08T03:44:45.645Z,14.52
2023-08-08T03:45:45.837Z,14.42
2023-08-08T03:46:45.708Z,14.45
2023-08-08T03:47:45.752Z,14.51
2023-08-08T03:48:45.656Z,14.53
2023-08-08T03:49:45.690Z,14.46
2023-08-08T03:50:45.682Z,14.43
2023-08-08T03:51:45.751Z,14.48
2023-08-08T03:52:45.704Z,14.44
2023-08-08T03:53:46.014Z,14.49
2023-08-08T03:54:45.789Z,14.39
2023-08-08T03:55:45.776Z,14.42
2023-08-08T03:56:45.840Z,14.44
2023-08-08T03:57:45.831Z,14.51
2023-08-08T03:58:46.440Z,14.49
2023-08-08T03:59:45.849Z,14.42
2023-08-08T04:00:45.889Z,14.43
2023-08-08T04:01:46.153Z,14.47
2023-08-08T04:02:45.920Z,14.39
2023-08-08T04:03:45.942Z,14.45
2023-08-08T04:04:45.921Z,14.36
2023-08-08T04:05:46.715Z,14.42
2023-08-08T04:06:46.000Z,14.44
2023-08-08T04:07:45.970Z,14.42
2023-08-08T04:08:45.981Z,14.4
2023-08-08T04:09:46.120Z,14.39
2023-08-08T04:10:47.170Z,14.42
2023-08-08T04:11:46.489Z,14.43
2023-08-08T04:12:46.534Z,14.5
2023-08-08T04:13:46.529Z,14.58
2023-08-08T04:14:46.540Z,14.54
2023-08-08T04:15:46.555Z,14.59
2023-08-08T04:16:46.674Z,14.66
2023-08-08T04:17:46.628Z,14.48
2023-08-08T04:18:46.611Z,14.56
2023-08-08T04:19:46.628Z,14.59
2023-08-08T04:20:47.111Z,14.59
2023-08-08T04:21:46.660Z,14.66
2023-08-08T04:22:46.696Z,14.69
2023-08-08T04:23:46.671Z,14.63
2023-08-08T04:24:46.665Z,14.58
2023-08-08T04:25:46.696Z,14.62
2023-08-08T04:26:46.816Z,14.59
2023-08-08T04:27:46.731Z,14.58
2023-08-08T04:28:46.742Z,14.58
2023-08-08T04:29:46.750Z,14.63
2023-08-08T04:30:46.978Z,14.58
2023-08-08T04:31:46.786Z,14.61
2023-08-08T04:32:46.904Z,14.65
2023-08-08T04:33:46.824Z,14.61
2023-08-08T04:34:46.857Z,14.59
2023-08-08T04:35:46.868Z,14.61
2023-08-08T04:36:46.846Z,14.49
2023-08-08T04:37:46.914Z,14.56
2023-08-08T04:38:46.860Z,14.55
2023-08-08T04:39:46.927Z,14.51
2023-08-08T04:40:47.020Z,14.58
2023-08-08T04:41:46.967Z,14.55
2023-08-08T04:42:46.998Z,14.61
2023-08-08T04:43:47.028Z,14.57
2023-08-08T04:44:47.011Z,14.56
2023-08-08T04:45:47.013Z,14.58
2023-08-08T04:46:47.069Z,14.57
2023-08-08T04:47:47.095Z,14.56
2023-08-08T04:48:47.092Z,14.49
2023-08-08T04:49:47.134Z,14.51
2023-08-08T04:50:47.447Z,14.67
2023-08-08T04:51:47.101Z,14.62
2023-08-08T04:52:47.154Z,14.62
2023-08-08T04:53:47.122Z,14.61
2023-08-08T04:54:47.160Z,14.55
2023-08-08T04:55:47.192Z,14.51
2023-08-08T04:56:47.184Z,14.56
2023-08-08T04:57:47.209Z,14.47
2023-08-08T04:58:47.772Z,14.47
2023-08-08T04:59:47.750Z,14.53
2023-08-08T05:00:48.024Z,14.48
2023-08-08T05:01:47.931Z,14.45
2023-08-08T05:02:47.975Z,14.48
2023-08-08T05:03:49.364Z,14.48
2023-08-08T05:04:47.855Z,14.46
2023-08-08T05:05:47.871Z,14.45
2023-08-08T05:06:47.865Z,14.41
2023-08-08T05:07:47.891Z,14.49
2023-08-08T05:08:47.900Z,14.52
2023-08-08T05:09:47.978Z,14.52
2023-08-08T05:10:48.035Z,14.46
2023-08-08T05:11:47.952Z,14.43
2023-08-08T05:12:47.952Z,14.41
2023-08-08T05:13:47.968Z,14.41
2023-08-08T05:14:48.164Z,14.38
2023-08-08T05:15:48.015Z,14.47
2023-08-08T05:16:48.106Z,14.43
2023-08-08T05:17:48.073Z,14.42
2023-08-08T05:18:48.075Z,14.47
2023-08-08T05:19:48.097Z,14.4
2023-08-08T05:20:48.120Z,14.39
2023-08-08T05:21:49.296Z,14.41
2023-08-08T05:22:48.555Z,14.39
2023-08-08T05:23:48.172Z,14.44
2023-08-08T05:24:48.154Z,14.41
2023-08-08T05:25:48.194Z,14.34
2023-08-08T05:26:48.174Z,14.36
2023-08-08T05:27:48.197Z,14.37
2023-08-08T05:28:48.750Z,14.33
2023-08-08T05:29:48.767Z,14.39
2023-08-08T05:30:48.874Z,14.44
2023-08-08T05:31:48.883Z,14.4
2023-08-08T05:32:48.841Z,14.36
2023-08-08T05:33:49.563Z,14.35
2023-08-08T05:34:50.657Z,14.4
2023-08-08T05:35:48.886Z,14.4
2023-08-08T05:36:50.378Z,14.33
2023-08-08T05:37:48.886Z,14.35
2023-08-08T05:38:48.938Z,14.38
2023-08-08T05:39:48.918Z,14.49
2023-08-08T05:40:48.997Z,14.43
2023-08-08T05:41:48.989Z,14.44
2023-08-08T05:42:49.097Z,14.54
2023-08-08T05:43:48.983Z,14.51
2023-08-08T05:44:49.082Z,14.53
2023-08-08T05:45:49.119Z,14.52
2023-08-08T05:46:49.043Z,14.41
2023-08-08T05:47:49.099Z,14.52
2023-08-08T05:48:49.049Z,14.55
2023-08-08T05:49:49.105Z,14.55
2023-08-08T05:50:49.097Z,14.6
2023-08-08T05:51:49.077Z,14.59
2023-08-08T05:52:49.105Z,14.44
2023-08-08T05:53:49.126Z,14.45
2023-08-08T05:54:49.132Z,14.48
2023-08-08T05:55:49.198Z,14.52
2023-08-08T05:56:49.155Z,14.54
2023-08-08T05:57:49.190Z,14.61
2023-08-08T05:58:49.217Z,14.68
2023-08-08T05:59:49.816Z,14.68
2023-08-08T06:00:49.272Z,14.7
2023-08-08T06:01:49.376Z,14.72
2023-08-08T06:02:49.297Z,14.8
2023-08-08T06:03:49.393Z,14.84
2023-08-08T06:04:49.313Z,14.75
2023-08-08T06:05:49.345Z,14.82
2023-08-08T06:06:49.366Z,14.9
2023-08-08T06:07:51.946Z,14.89
2023-08-08T06:08:49.366Z,14.98
2023-08-08T06:09:49.596Z,15.03
2023-08-08T06:10:49.422Z,14.99
2023-08-08T06:11:49.553Z,15.01
2023-08-08T06:12:49.450Z,15.18
2023-08-08T06:13:49.475Z,15.07
2023-08-08T06:14:49.584Z,15.03
2023-08-08T06:15:49.495Z,15
2023-08-08T06:16:49.595Z,15.09
2023-08-08T06:17:49.642Z,14.95
2023-08-08T06:18:49.540Z,14.88
2023-08-08T06:19:49.764Z,14.9
2023-08-08T06:20:49.540Z,14.93
2023-08-08T06:21:49.570Z,14.91
2023-08-08T06:22:49.878Z,14.85
2023-08-08T06:23:49.595Z,14.82
2023-08-08T06:24:49.821Z,14.79
2023-08-08T06:25:49.652Z,14.87
2023-08-08T06:26:49.783Z,14.97
2023-08-08T06:27:50.294Z,14.93
2023-08-08T06:28:49.693Z,14.98
2023-08-08T06:29:49.803Z,15.05
2023-08-08T06:30:49.693Z,15
2023-08-08T06:31:49.916Z,15.05
2023-08-08T06:32:49.813Z,14.95
2023-08-08T06:33:49.968Z,14.95
2023-08-08T06:34:49.778Z,14.98
2023-08-08T06:35:49.824Z,14.92
2023-08-08T06:36:49.874Z,15.03
2023-08-08T06:37:49.823Z,15.13
2023-08-08T06:38:49.862Z,15.08
2023-08-08T06:39:49.874Z,14.99
2023-08-08T06:40:49.893Z,15.03
2023-08-08T06:41:49.968Z,15.15
2023-08-08T06:42:50.003Z,15.13
2023-08-08T06:43:49.928Z,15.19
2023-08-08T06:44:49.967Z,15
2023-08-08T06:45:50.075Z,14.81
2023-08-08T06:46:49.997Z,14.86
2023-08-08T06:47:50.086Z,14.79
2023-08-08T06:48:50.488Z,14.67
2023-08-08T06:49:50.481Z,14.84
2023-08-08T06:50:50.548Z,14.72
2023-08-08T06:51:50.530Z,14.72
2023-08-08T06:52:50.535Z,14.72
2023-08-08T06:53:50.616Z,14.9
2023-08-08T06:54:50.540Z,14.84
2023-08-08T06:55:50.598Z,14.67
2023-08-08T06:56:50.619Z,14.57
2023-08-08T06:57:50.605Z,14.74
2023-08-08T06:58:50.643Z,14.65
2023-08-08T06:59:50.636Z,14.7
2023-08-08T07:00:51.213Z,14.8
2023-08-08T07:01:51.118Z,14.72
2023-08-08T07:02:50.723Z,14.86
2023-08-08T07:03:50.816Z,14.89
2023-08-08T07:04:50.731Z,14.88
2023-08-08T07:05:50.746Z,14.97
2023-08-08T07:06:50.777Z,14.92
2023-08-08T07:07:51.330Z,14.92
2023-08-08T07:08:50.828Z,15.01
2023-08-08T07:09:50.811Z,14.89
2023-08-08T07:10:50.832Z,15.03
2023-08-08T07:11:50.875Z,15.25
2023-08-08T07:12:50.905Z,15.12
2023-08-08T07:13:50.851Z,15.28
2023-08-08T07:14:50.900Z,15.29
2023-08-08T07:15:50.967Z,15.45
2023-08-08T07:16:50.957Z,15.64
2023-08-08T07:17:51.060Z,15.66
2023-08-08T07:18:53.518Z,15.61
2023-08-08T07:19:51.286Z,15.49
2023-08-08T07:20:50.998Z,15.51
2023-08-08T07:21:51.052Z,15.43
2023-08-08T07:22:51.014Z,15.29
2023-08-08T07:23:51.023Z,15.26
2023-08-08T07:24:51.080Z,15.27
2023-08-08T07:25:51.788Z,15.23
2023-08-08T07:26:51.132Z,15.26
2023-08-08T07:27:51.100Z,15.39
2023-08-08T07:28:51.131Z,15.51
2023-08-08T07:29:51.145Z,15.43
2023-08-08T07:30:51.204Z,15.4
2023-08-08T07:31:53.124Z,15.26
2023-08-08T07:32:51.239Z,15.38
2023-08-08T07:33:51.268Z,15.59
2023-08-08T07:34:51.188Z,15.48
2023-08-08T07:35:51.230Z,15.58
2023-08-08T07:36:51.253Z,15.48
2023-08-08T07:37:51.327Z,15.41
2023-08-08T07:38:51.290Z,15.34
2023-08-08T07:39:51.860Z,15.37
2023-08-08T07:40:51.290Z,15.44
2023-08-08T07:41:51.304Z,15.45
2023-08-08T07:42:51.396Z,15.58
2023-08-08T07:43:51.369Z,15.63
2023-08-08T07:44:51.383Z,15.5
2023-08-08T07:45:51.389Z,15.47
2023-08-08T07:46:51.476Z,15.51
2023-08-08T07:47:51.661Z,15.48
2023-08-08T07:48:51.459Z,15.46
2023-08-08T07:49:51.477Z,15.35
2023-08-08T07:50:51.472Z,15.35
2023-08-08T07:51:51.508Z,15.44
2023-08-08T07:52:51.535Z,15.7
2023-08-08T07:53:51.538Z,15.9
2023-08-08T07:54:51.523Z,15.75
2023-08-08T07:55:51.532Z,15.8
2023-08-08T07:56:51.587Z,15.79
2023-08-08T07:57:52.506Z,15.76
2023-08-08T07:58:51.595Z,15.88
2023-08-08T07:59:51.595Z,16.02
2023-08-08T08:00:51.643Z,15.77
2023-08-08T08:01:51.898Z,15.89
2023-08-08T08:02:51.732Z,16.04
2023-08-08T08:03:51.811Z,16.02
2023-08-08T08:04:51.694Z,16.21
2023-08-08T08:05:51.727Z,16.28
2023-08-08T08:06:51.705Z,16.31
2023-08-08T08:07:51.724Z,16.51
2023-08-08T08:08:51.792Z,16.54
2023-08-08T08:09:51.822Z,16.76
2023-08-08T08:10:51.970Z,16.74
2023-08-08T08:11:51.944Z,16.73
2023-08-08T08:12:51.954Z,16.88
2023-08-08T08:13:51.824Z,16.78
2023-08-08T08:14:51.900Z,16.97
2023-08-08T08:15:51.883Z,16.88
2023-08-08T08:16:51.936Z,16.66
2023-08-08T08:17:52.058Z,16.42
2023-08-08T08:18:51.923Z,16.3
2023-08-08T08:19:52.331Z,16.28
2023-08-08T08:20:51.947Z,16.32
2023-08-08T08:21:51.953Z,16.43
2023-08-08T08:22:51.963Z,16.36
2023-08-08T08:23:52.001Z,16.42
2023-08-08T08:24:52.006Z,16.57
2023-08-08T08:25:52.118Z,16.62
2023-08-08T08:26:52.018Z,16.7
2023-08-08T08:27:52.047Z,16.97
2023-08-08T08:28:52.026Z,16.99
2023-08-08T08:29:52.094Z,16.96
2023-08-08T08:30:52.088Z,16.93
2023-08-08T08:31:52.085Z,17.04
2023-08-08T08:32:52.517Z,16.97
2023-08-08T08:33:52.591Z,17.1
2023-08-08T08:34:52.166Z,16.93
2023-08-08T08:35:52.173Z,17.08
2023-08-08T08:36:52.175Z,17.02
2023-08-08T08:37:52.161Z,16.73
2023-08-08T08:38:52.177Z,16.66
2023-08-08T08:39:52.183Z,16.66
2023-08-08T08:40:54.544Z,17.04
2023-08-08T08:41:55.380Z,17.09
2023-08-08T08:42:52.763Z,17.15
2023-08-08T08:43:52.596Z,17.46
2023-08-08T08:44:52.385Z,17.69
2023-08-08T08:45:54.135Z,18
2023-08-08T08:46:52.865Z,18.07
2023-08-08T08:47:56.566Z,17.82
2023-08-08T08:48:55.073Z,17.57
2023-08-08T08:49:53.439Z,17.2
2023-08-08T08:50:53.564Z,17.15
2023-08-08T08:51:53.060Z,16.93
2023-08-08T08:52:54.167Z,16.68
2023-08-08T08:53:52.993Z,16.76
2023-08-08T08:54:53.015Z,16.47
2023-08-08T08:55:53.107Z,16.59
2023-08-08T08:56:53.171Z,16.57
2023-08-08T08:57:53.818Z,16.41
2023-08-08T08:58:53.027Z,16.27
2023-08-08T08:59:53.561Z,16.24
2023-08-08T09:00:53.859Z,16.15
2023-08-08T09:01:53.909Z,16.21
2023-08-08T09:02:53.402Z,16.2
2023-08-08T09:03:53.376Z,16.23
2023-08-08T09:04:53.474Z,16.26
2023-08-08T09:05:53.742Z,16.23
2023-08-08T09:06:53.163Z,16.2
2023-08-08T09:07:53.178Z,16.24
2023-08-08T09:08:57.575Z,16.18
2023-08-08T09:09:54.503Z,16.19
2023-08-08T09:10:54.508Z,16.14
2023-08-08T09:11:55.019Z,16.05
2023-08-08T09:12:54.524Z,16.09
2023-08-08T09:13:54.607Z,15.96
2023-08-08T09:14:57.911Z,15.9
2023-08-08T09:15:54.570Z,15.89
2023-08-08T09:16:54.856Z,15.92
2023-08-08T09:17:54.730Z,16.07
2023-08-08T09:18:54.626Z,16.09
2023-08-08T09:19:55.294Z,16.16
2023-08-08T09:20:54.618Z,16.37
2023-08-08T09:21:54.641Z,16.76
2023-08-08T09:22:54.722Z,16.63
2023-08-08T09:23:54.713Z,16.7
2023-08-08T09:24:54.665Z,16.51
2023-08-08T09:25:55.205Z,16.4
2023-08-08T09:26:54.810Z,16.45
2023-08-08T09:27:54.722Z,16.45
2023-08-08T09:28:54.853Z,16.36
2023-08-08T09:29:54.823Z,16.29
2023-08-08T09:30:55.271Z,16.42
2023-08-08T09:31:54.748Z,16.8
2023-08-08T09:32:58.659Z,17.21
2023-08-08T09:33:56.160Z,17.18
2023-08-08T09:34:56.350Z,17.35
2023-08-08T09:35:54.942Z,17.62
2023-08-08T09:36:55.540Z,17.64
2023-08-08T09:37:55.493Z,17.65
2023-08-08T09:38:55.233Z,17.63
2023-08-08T09:40:01.025Z,17.65
2023-08-08T09:40:57.234Z,17.58
2023-08-08T09:41:57.255Z,17.28
2023-08-08T09:42:57.580Z,17.15
2023-08-08T09:43:57.230Z,17.07
2023-08-08T09:44:57.812Z,16.86
2023-08-08T09:45:57.588Z,16.75
2023-08-08T09:46:57.301Z,16.57
2023-08-08T09:47:59.880Z,16.52
2023-08-08T09:48:58.233Z,16.63
2023-08-08T09:50:00.814Z,16.92
2023-08-08T09:50:58.286Z,17.1
2023-08-08T09:51:58.151Z,17.44
2023-08-08T09:52:57.638Z,17.83
2023-08-08T09:53:57.830Z,18.1
2023-08-08T09:54:57.492Z,18.21
2023-08-08T09:55:57.790Z,18.03
2023-08-08T09:56:57.627Z,18.19
2023-08-08T09:57:58.620Z,18.17
2023-08-08T09:58:57.997Z,18
2023-08-08T09:59:58.377Z,17.92
2023-08-08T10:00:57.464Z,17.73
2023-08-08T10:01:58.830Z,17.69
2023-08-08T10:02:57.659Z,17.78
2023-08-08T10:03:57.718Z,17.84
2023-08-08T10:04:59.603Z,17.77
2023-08-08T10:05:57.558Z,17.75
2023-08-08T10:06:57.635Z,17.91
2023-08-08T10:07:57.575Z,18.34
2023-08-08T10:08:57.595Z,18.45
2023-08-08T10:09:58.653Z,18.86
2023-08-08T10:10:57.800Z,19.01
2023-08-08T10:11:58.229Z,19
2023-08-08T10:12:57.802Z,18.58
2023-08-08T10:13:58.005Z,18.24
2023-08-08T10:14:57.817Z,18.05
2023-08-08T10:15:57.866Z,17.63
2023-08-08T10:16:58.125Z,17.42
2023-08-08T10:17:58.418Z,17.39
2023-08-08T10:19:01.474Z,17.34
2023-08-08T10:19:57.869Z,17.27
2023-08-08T10:20:58.039Z,17.17
2023-08-08T10:21:59.502Z,17.08
2023-08-08T10:23:00.327Z,17.23
2023-08-08T10:24:04.367Z,17.46
2023-08-08T10:25:04.304Z,17.83
2023-08-08T10:26:00.528Z,18.21
2023-08-08T10:27:01.314Z,18.49
2023-08-08T10:29:04.874Z,18.62
2023-08-08T10:30:08.758Z,18.93
2023-08-08T10:31:04.957Z,18.85
2023-08-08T10:32:06.544Z,18.86
2023-08-08T10:33:05.200Z,18.69
2023-08-08T10:34:05.963Z,18.41
2023-08-08T10:35:06.504Z,17.99
2023-08-08T10:36:06.021Z,18.03
2023-08-08T10:37:05.936Z,18.19
2023-08-08T10:38:08.911Z,18.17
2023-08-08T10:39:11.595Z,18.48
2023-08-08T10:40:08.514Z,18.43
2023-08-08T10:41:10.039Z,18.38
2023-08-08T10:42:08.026Z,18.12
2023-08-08T10:43:12.320Z,18.15
2023-08-08T10:44:09.647Z,18.07
2023-08-08T10:45:10.542Z,18.31
2023-08-08T10:47:08.644Z,18.31
2023-08-08T10:48:09.256Z,18.17
2023-08-08T10:49:08.673Z,18.3
2023-08-08T10:50:15.794Z,18.76
2023-08-08T10:51:14.967Z,19.14
2023-08-08T10:52:14.692Z,18.96
2023-08-08T10:53:12.534Z,19.26
2023-08-08T10:54:18.034Z,19.03
2023-08-08T10:56:19.991Z,18.83
2023-08-08T10:57:18.895Z,18.62
2023-08-08T10:58:18.901Z,18.67
2023-08-08T10:59:26.872Z,18.45
2023-08-08T11:00:28.339Z,18.21
2023-08-08T11:01:28.248Z,18.18
2023-08-08T11:02:25.181Z,18.37
2023-08-08T11:03:24.666Z,18.52
2023-08-08T11:04:25.200Z,18.43
2023-08-08T11:05:24.943Z,18.42
2023-08-08T11:06:24.924Z,18.26
2023-08-08T11:07:27.900Z,18.3
2023-08-08T11:08:24.896Z,18.4
2023-08-08T11:09:24.723Z,18.12
2023-08-08T11:10:24.755Z,18.02
2023-08-08T11:11:24.848Z,18.08
2023-08-08T11:12:24.769Z,18.1
2023-08-08T11:13:24.777Z,17.99
2023-08-08T11:14:24.791Z,18.12
2023-08-08T11:15:25.077Z,18.16
2023-08-08T11:16:25.895Z,18.31
2023-08-08T11:17:25.041Z,18.22
2023-08-08T11:18:25.506Z,18.31
2023-08-08T11:19:24.855Z,18.36
2023-08-08T11:20:25.065Z,18.49
2023-08-08T11:21:24.861Z,18.5
2023-08-08T11:22:24.951Z,18.54
2023-08-08T11:23:24.931Z,18.68
2023-08-08T11:24:24.930Z,18.78
2023-08-08T11:25:28.805Z,18.69
2023-08-08T11:26:24.984Z,18.59
2023-08-08T11:28:25.003Z,18.67
2023-08-08T11:29:25.028Z,18.77
2023-08-08T11:30:28.201Z,18.8
2023-08-08T11:31:25.138Z,18.75
2023-08-08T11:32:28.289Z,19.02
2023-08-08T11:33:26.154Z,19.4
2023-08-08T11:34:25.163Z,19.52
2023-08-08T11:35:25.798Z,19.6
2023-08-08T11:36:25.491Z,18.94
2023-08-08T11:37:25.302Z,19.2
2023-08-08T11:38:25.444Z,19.29
2023-08-08T11:39:25.503Z,19.41
2023-08-08T11:40:29.181Z,19.61
2023-08-08T11:41:25.630Z,19.69
2023-08-08T11:42:25.616Z,19.59
2023-08-08T11:43:25.642Z,19.82
2023-08-08T11:44:25.655Z,19.76
2023-08-08T11:45:25.665Z,19.66
2023-08-08T11:46:26.381Z,19.86
2023-08-08T11:47:25.873Z,20.04
2023-08-08T11:48:25.636Z,19.97
2023-08-08T11:49:25.566Z,19.81
2023-08-08T11:50:26.416Z,19.76
2023-08-08T11:51:25.588Z,19.54
2023-08-08T11:52:25.592Z,19.6
2023-08-08T11:53:25.637Z,19.84
2023-08-08T11:54:27.783Z,19.57
2023-08-08T11:55:28.988Z,19.49
2023-08-08T11:56:25.703Z,19.71
2023-08-08T11:57:25.695Z,20.01
2023-08-08T11:58:25.916Z,20.04
2023-08-08T11:59:25.739Z,19.92
2023-08-08T12:00:29.839Z,20.24
2023-08-08T12:01:27.119Z,20.25
2023-08-08T12:02:27.652Z,20.11
2023-08-08T12:03:26.750Z,20.08
2023-08-08T12:04:27.937Z,19.85
2023-08-08T12:05:26.313Z,19.64
2023-08-08T12:06:29.688Z,19.37
2023-08-08T12:07:26.103Z,19.22
2023-08-08T12:08:31.064Z,19.2
2023-08-08T12:09:31.995Z,19.29
2023-08-08T12:10:28.179Z,19.73
2023-08-08T12:11:28.277Z,19.96
2023-08-08T12:12:28.603Z,19.77
2023-08-08T12:13:28.235Z,19.64
2023-08-08T12:14:28.872Z,19.4
2023-08-08T12:15:29.562Z,19.22
2023-08-08T12:16:30.696Z,19.07
2023-08-08T12:17:28.809Z,18.89
2023-08-08T12:18:30.295Z,18.96
2023-08-08T12:19:28.871Z,18.7
2023-08-08T12:20:32.041Z,18.66
2023-08-08T12:21:28.969Z,18.58
2023-08-08T12:22:30.193Z,18.59
2023-08-08T12:23:28.972Z,18.47
2023-08-08T12:24:28.925Z,18.6
2023-08-08T12:25:28.962Z,18.85
2023-08-08T12:26:29.105Z,19.33
2023-08-08T12:27:28.975Z,19.43
2023-08-08T12:28:28.948Z,19.38
2023-08-08T12:29:28.978Z,19.37
2023-08-08T12:30:28.952Z,19.58
2023-08-08T12:31:29.010Z,19.61
2023-08-08T12:32:29.042Z,19.58
2023-08-08T12:33:29.143Z,19.42
2023-08-08T12:34:29.070Z,19.39
2023-08-08T12:35:29.026Z,19.55
2023-08-08T12:36:29.049Z,19.4
2023-08-08T12:37:29.081Z,19.43
2023-08-08T12:38:29.105Z,19.21
2023-08-08T12:39:29.615Z,19.11
2023-08-08T12:40:29.158Z,18.96
2023-08-08T12:41:29.138Z,18.97
2023-08-08T12:42:29.293Z,18.9
2023-08-08T12:43:29.180Z,18.73
2023-08-08T12:44:29.216Z,18.78
2023-08-08T12:45:29.206Z,18.72
2023-08-08T12:46:29.326Z,18.99
2023-08-08T12:47:29.225Z,19.52
2023-08-08T12:48:29.266Z,20
2023-08-08T12:49:29.288Z,19.92
2023-08-08T12:50:29.311Z,19.87
2023-08-08T12:51:29.323Z,20.31
2023-08-08T12:52:29.325Z,20.46
2023-08-08T12:53:29.354Z,20.12
2023-08-08T12:54:29.370Z,19.96
2023-08-08T12:55:29.420Z,19.87
2023-08-08T12:56:29.374Z,19.88
2023-08-08T12:57:29.403Z,19.84
2023-08-08T12:58:29.432Z,19.73
2023-08-08T12:59:29.412Z,19.46
2023-08-08T13:00:29.499Z,19.27
2023-08-08T13:01:29.552Z,18.92
2023-08-08T13:02:29.619Z,19.08
2023-08-08T13:03:29.556Z,18.94